TimeCST,TemperatureF,Dew PointF,Humidity,Sea Level PressureIn,VisibilityMPH,Wind Direction,Wind SpeedMPH,Gust SpeedMPH,PrecipitationIn,Events,Conditions,WindDirDegrees,DateUTC
12:15 AM,17.4,15.6,93,30.25,10.0,East,6.9,-,N/A,,Clear,100,2014-02-17 06:15:00
12:35 AM,18.0,16.2,93,30.25,10.0,ESE,3.5,-,N/A,,Clear,110,2014-02-17 06:35:00
12:55 AM,18.3,15.8,90,30.25,10.0,Calm,Calm,-,N/A,,Clear,0,2014-02-17 06:55:00
1:15 AM,18.5,15.1,86,30.24,10.0,East,5.8,-,N/A,,Clear,100,2014-02-17 07:15:00
1:35 AM,19.0,14.9,84,30.23,10.0,East,5.8,-,N/A,,Scattered Clouds,100,2014-02-17 07:35:00
1:55 AM,20.1,15.6,83,30.22,10.0,ESE,6.9,-,N/A,,Overcast,110,2014-02-17 07:55:00
2:15 AM,20.3,15.8,83,30.20,10.0,ESE,8.1,-,N/A,,Overcast,120,2014-02-17 08:15:00
2:35 AM,21.6,16.2,80,30.20,10.0,East,6.9,-,N/A,,Overcast,100,2014-02-17 08:35:00
2:55 AM,22.1,16.7,80,30.18,10.0,ESE,8.1,-,N/A,,Overcast,110,2014-02-17 08:55:00
3:15 AM,22.8,16.7,77,30.19,10.0,ESE,10.4,-,N/A,,Overcast,120,2014-02-17 09:15:00
3:35 AM,23.0,17.1,78,30.19,10.0,ESE,6.9,-,N/A,,Overcast,120,2014-02-17 09:35:00
3:55 AM,23.0,16.7,77,30.18,10.0,ESE,6.9,-,N/A,,Overcast,120,2014-02-17 09:55:00
4:15 AM,23.0,16.7,77,30.17,10.0,ESE,6.9,-,N/A,,Overcast,110,2014-02-17 10:15:00
4:35 AM,23.4,17.2,77,30.17,10.0,ESE,8.1,-,N/A,,Overcast,120,2014-02-17 10:35:00
4:55 AM,23.7,17.6,77,30.17,10.0,ESE,10.4,-,N/A,,Overcast,120,2014-02-17 10:55:00
5:15 AM,23.7,17.8,78,30.15,10.0,ESE,10.4,-,N/A,,Overcast,120,2014-02-17 11:15:00
5:35 AM,23.7,18.3,80,30.16,10.0,SE,12.7,-,N/A,,Mostly Cloudy,140,2014-02-17 11:35:00
5:55 AM,23.7,18.5,80,30.13,10.0,ESE,11.5,16.1,N/A,,Overcast,120,2014-02-17 11:55:00
6:15 AM,23.9,18.3,79,30.10,10.0,East,13.8,18.4,N/A,,Mostly Cloudy,100,2014-02-17 12:15:00
6:35 AM,23.9,18.5,80,30.08,10.0,ESE,13.8,20.7,N/A,,Scattered Clouds,110,2014-02-17 12:35:00
6:50 AM,23.9,18.5,80,30.08,10.0,ESE,12.7,18.4,N/A,,Clear,110,2014-02-17 12:50:00
7:15 AM,23.9,18.5,80,30.07,10.0,ESE,12.7,18.4,N/A,,Clear,120,2014-02-17 13:15:00
7:35 AM,24.4,18.5,78,30.07,10.0,ESE,11.5,20.7,N/A,,Clear,120,2014-02-17 13:35:00
7:55 AM,24.4,18.3,78,30.04,10.0,ESE,15.0,19.6,N/A,,Scattered Clouds,110,2014-02-17 13:55:00
8:15 AM,25.0,19.2,79,30.05,10.0,SE,13.8,18.4,N/A,,Scattered Clouds,140,2014-02-17 14:15:00
8:35 AM,25.7,19.4,77,30.02,10.0,ESE,13.8,17.3,N/A,,Mostly Cloudy,120,2014-02-17 14:35:00
8:55 AM,25.9,19.4,76,30.01,10.0,ESE,10.4,19.6,N/A,,Overcast,120,2014-02-17 14:55:00
9:15 AM,26.6,19.8,75,30.02,10.0,ESE,8.1,-,N/A,,Overcast,120,2014-02-17 15:15:00
9:35 AM,27.0,19.9,75,30.02,10.0,East,4.6,-,N/A,,Overcast,100,2014-02-17 15:35:00
9:55 AM,27.1,20.1,75,30.05,10.0,Calm,Calm,-,N/A,,Overcast,0,2014-02-17 15:55:00
10:15 AM,27.5,20.3,74,30.01,10.0,ESE,6.9,-,N/A,,Overcast,110,2014-02-17 16:15:00
10:35 AM,27.5,21.0,77,29.97,4.0,East,13.8,-,N/A,Snow,Light Snow,100,2014-02-17 16:35:00
10:55 AM,28.4,23.7,83,29.91,3.0,East,17.3,23.0,N/A,,Overcast,90,2014-02-17 16:55:00
11:15 AM,28.4,23.5,82,29.87,10.0,East,17.3,21.9,N/A,Thunderstorm,Thunderstorm,80,2014-02-17 17:15:00
11:35 AM,29.3,24.3,81,29.83,4.0,East,16.1,-,N/A,,Overcast,100,2014-02-17 17:35:00
11:55 AM,29.7,24.8,82,29.82,5.0,East,9.2,19.6,N/A,,Overcast,100,2014-02-17 17:55:00
12:15 PM,30.7,25.7,82,29.75,3.0,East,12.7,16.1,0.03,Rain,Freezing Rain,100,2014-02-17 18:15:00
12:35 PM,30.6,26.4,85,29.80,2.0,Calm,Calm,-,0.03,,Overcast,0,2014-02-17 18:35:00
12:55 PM,30.7,27.3,87,29.79,1.2,Calm,Calm,-,0.06,Thunderstorm,Thunderstorm,0,2014-02-17 18:55:00
1:15 PM,31.1,28.2,89,29.77,2.5,SE,4.6,-,0.01,,Overcast,140,2014-02-17 19:15:00
1:35 PM,31.6,29.5,92,29.75,3.0,SE,5.8,-,0.02,,Overcast,140,2014-02-17 19:35:00
1:55 PM,32.0,30.0,92,29.73,3.0,SE,4.6,-,0.02,,Overcast,130,2014-02-17 19:55:00
2:15 PM,32.0,30.2,93,29.74,3.0,SSE,6.9,-,N/A,,Overcast,150,2014-02-17 20:15:00
2:35 PM,32.0,30.9,96,29.74,2.0,South,5.8,-,N/A,Snow,Light Snow,170,2014-02-17 20:35:00
2:55 PM,32.2,31.1,96,29.74,2.5,South,5.8,-,N/A,,Overcast,190,2014-02-17 20:55:00
3:15 PM,32.5,31.8,97,29.74,1.0,SSW,6.9,-,N/A,Snow,Light Snow,200,2014-02-17 21:15:00
3:35 PM,32.9,32.0,96,29.74,1.5,SW,8.1,-,N/A,Snow,Light Snow,230,2014-02-17 21:35:00
3:55 PM,33.1,32.0,96,29.74,4.0,SW,11.5,-,N/A,,Overcast,230,2014-02-17 21:55:00
4:15 PM,33.6,32.2,94,29.76,7.0,West,19.6,25.3,N/A,,Overcast,260,2014-02-17 22:15:00
4:35 PM,33.8,31.8,92,29.77,10.0,West,20.7,29.9,N/A,,Overcast,260,2014-02-17 22:35:00
4:55 PM,33.8,31.1,90,29.78,10.0,West,28.8,32.2,N/A,,Overcast,270,2014-02-17 22:55:00
5:15 PM,33.4,30.6,89,29.80,10.0,West,25.3,33.4,N/A,,Overcast,270,2014-02-17 23:15:00
5:35 PM,33.3,30.6,90,29.82,7.0,West,24.2,31.1,N/A,,Overcast,280,2014-02-17 23:35:00
5:55 PM,33.3,30.9,91,29.84,7.0,West,26.5,32.2,N/A,,Overcast,270,2014-02-17 23:55:00
6:15 PM,33.4,31.1,91,29.85,7.0,West,27.6,36.8,N/A,,Overcast,270,2014-02-18 00:15:00
6:35 PM,33.8,31.1,90,29.87,7.0,West,28.8,34.5,N/A,,Overcast,270,2014-02-18 00:35:00
6:55 PM,33.8,31.1,90,29.87,7.0,West,20.7,25.3,N/A,,Overcast,270,2014-02-18 00:55:00
7:15 PM,33.8,31.5,91,29.87,7.0,West,19.6,-,N/A,,Overcast,260,2014-02-18 01:15:00
7:35 PM,33.8,31.8,92,29.88,7.0,WSW,15.0,-,N/A,,Overcast,250,2014-02-18 01:35:00
7:55 PM,33.8,31.8,92,29.89,5.0,WSW,15.0,20.7,N/A,,Mostly Cloudy,240,2014-02-18 01:55:00
8:15 PM,33.8,32.0,93,29.89,7.0,WSW,16.1,-,N/A,,Clear,240,2014-02-18 02:15:00
8:35 PM,34.0,32.0,92,29.89,7.0,SW,16.1,21.9,N/A,,Clear,230,2014-02-18 02:35:00
8:55 PM,34.3,32.0,91,29.89,7.0,SW,19.6,25.3,N/A,,Clear,230,2014-02-18 02:55:00
9:15 PM,35.1,31.8,88,29.90,10.0,WSW,16.1,-,N/A,,Clear,250,2014-02-18 03:15:00
9:35 PM,36.5,31.5,82,29.90,10.0,WSW,17.3,23.0,N/A,,Clear,250,2014-02-18 03:35:00
9:55 PM,36.5,31.1,81,29.91,10.0,WSW,16.1,21.9,N/A,,Clear,250,2014-02-18 03:55:00
10:15 PM,37.0,30.7,78,29.91,10.0,WSW,16.1,25.3,N/A,,Clear,250,2014-02-18 04:15:00
10:35 PM,36.9,30.6,78,29.91,10.0,WSW,16.1,-,N/A,,Clear,250,2014-02-18 04:35:00
10:55 PM,37.0,30.2,76,29.91,10.0,West,16.1,-,N/A,,Clear,260,2014-02-18 04:55:00
11:15 PM,37.0,30.2,76,29.92,10.0,West,17.3,21.9,N/A,,Clear,260,2014-02-18 05:15:00
11:35 PM,37.2,30.0,75,29.93,10.0,West,16.1,-,N/A,,Clear,260,2014-02-18 05:35:00
11:55 PM,37.0,29.8,75,29.94,10.0,West,17.3,23.0,N/A,,Clear,260,2014-02-18 05:55:00